Time;durP1;ratioP1;P1;durP2;ratioP2;P2;SDS_P1;SDS_P2;PMS_P1;PMS_P2;Temp;Humidity;BMP_temperature;BMP_pressure;BME280_temperature;BME280_humidity;BME280_pressure;Samples;Min_cycle;Max_cycle;Signal;HPM_P1;HPM_P2
2023/06/29 00:00:21;;;;;;;31.08;21.92;;;18.70;99.90;;;;;;5003648;28;19917;-76
2023/06/29 00:02:48;;;;;;;31.73;21.52;;;18.70;99.90;;;;;;5019731;28;20139;-76
2023/06/29 00:05:14;;;;;;;32.03;21.98;;;18.70;99.90;;;;;;5003561;28;20037;-76
2023/06/29 00:07:40;;;;;;;32.55;21.77;;;18.70;99.90;;;;;;4994592;28;20031;-76
2023/06/29 00:10:07;;;;;;;30.60;21.38;;;18.70;99.90;;;;;;5003403;28;20026;-76
2023/06/29 00:12:34;;;;;;;30.70;21.45;;;18.70;99.90;;;;;;5019482;28;20299;-76
2023/06/29 00:14:59;;;;;;;30.48;21.88;;;18.70;99.90;;;;;;5003630;28;20030;-76
2023/06/29 00:17:25;;;;;;;33.55;22.63;;;18.60;99.90;;;;;;5003009;28;20094;-76
2023/06/29 00:19:51;;;;;;;31.98;22.45;;;18.60;99.90;;;;;;5003058;28;20038;-76
2023/06/29 00:22:18;;;;;;;36.13;24.25;;;18.70;99.90;;;;;;5002969;28;20041;-76
2023/06/29 00:24:43;;;;;;;34.10;24.63;;;18.70;99.90;;;;;;5019387;28;20049;-76
2023/06/29 00:27:11;;;;;;;33.67;22.00;;;18.70;99.90;;;;;;5003313;28;20029;-76
2023/06/29 00:29:38;;;;;;;31.98;21.70;;;18.70;99.90;;;;;;5019282;28;20164;-76
2023/06/29 00:32:04;;;;;;;33.70;22.45;;;18.70;99.90;;;;;;5085250;28;20050;-76
2023/06/29 00:34:31;;;;;;;32.67;22.73;;;18.70;99.90;;;;;;5085393;28;20020;-76
2023/06/29 00:36:56;;;;;;;30.05;21.20;;;18.70;99.90;;;;;;5068512;28;20065;-76
2023/06/29 00:39:22;;;;;;;34.00;23.52;;;18.60;99.90;;;;;;5102196;28;20031;-76
2023/06/29 00:41:55;;;;;;;34.22;22.42;;;18.60;99.90;;;;;;5085007;28;20057;-76
2023/06/29 00:44:21;;;;;;;34.63;24.60;;;18.70;99.90;;;;;;5085111;28;20028;-76
2023/06/29 00:46:49;;;;;;;33.47;22.42;;;18.70;99.90;;;;;;5085078;28;20360;-76
2023/06/29 00:49:15;;;;;;;30.85;22.38;;;18.70;99.90;;;;;;5085431;28;20280;-76
2023/06/29 00:51:41;;;;;;;36.45;23.52;;;18.60;99.90;;;;;;5101955;28;20177;-76
2023/06/29 00:54:07;;;;;;;30.88;22.17;;;18.70;99.90;;;;;;5101901;28;20028;-76
2023/06/29 00:56:34;;;;;;;34.17;24.00;;;19.60;99.90;;;;;;5084775;28;20024;-76
2023/06/29 00:59:00;;;;;;;31.33;22.60;;;18.70;99.90;;;;;;5101726;28;20027;-76
2023/06/29 01:01:27;;;;;;;33.45;22.40;;;18.60;99.90;;;;;;5085083;28;20045;-76
2023/06/29 01:03:56;;;;;;;33.90;22.48;;;18.00;99.90;;;;;;5101797;28;20125;-76
2023/06/29 01:06:29;;;;;;;33.20;22.25;;;18.60;99.90;;;;;;5101923;28;20277;-76
2023/06/29 01:09:05;;;;;;;38.50;23.52;;;18.60;99.90;;;;;;5101901;28;20191;-76
2023/06/29 01:11:33;;;;;;;30.63;21.27;;;18.60;99.90;;;;;;5101529;28;20060;-76
2023/06/29 01:14:01;;;;;;;32.97;22.02;;;18.60;99.90;;;;;;5085049;28;20181;-76
2023/06/29 01:16:28;;;;;;;35.50;23.45;;;18.60;99.90;;;;;;5084572;28;20333;-76
2023/06/29 01:18:57;;;;;;;36.88;25.25;;;18.50;99.90;;;;;;5084696;28;20253;-76
2023/06/29 01:21:23;;;;;;;33.55;23.63;;;18.60;99.90;;;;;;5101443;28;20075;-76
2023/06/29 01:23:53;;;;;;;33.22;21.90;;;18.60;99.90;;;;;;5101750;28;20084;-76
2023/06/29 01:26:19;;;;;;;33.38;22.65;;;18.50;99.90;;;;;;5084388;28;20048;-76
2023/06/29 01:28:48;;;;;;;30.75;21.80;;;18.60;99.90;;;;;;5101740;28;20036;-76
2023/06/29 01:31:14;;;;;;;35.70;24.42;;;18.50;99.90;;;;;;5085133;28;20027;-76
2023/06/29 01:33:40;;;;;;;33.40;22.95;;;18.50;99.90;;;;;;5084762;28;20027;-76
2023/06/29 01:36:09;;;;;;;34.25;23.45;;;18.50;99.90;;;;;;5084827;28;20146;-76
2023/06/29 01:38:47;;;;;;;34.40;23.10;;;18.50;99.90;;;;;;5101387;28;20169;-76
2023/06/29 01:41:16;;;;;;;31.65;23.02;;;18.50;99.90;;;;;;5084595;28;20046;-76
2023/06/29 01:43:43;;;;;;;35.05;22.08;;;18.50;99.90;;;;;;5101509;28;20031;-76
2023/06/29 01:46:10;;;;;;;32.25;22.65;;;18.50;99.90;;;;;;5101305;28;20167;-76
2023/06/29 01:48:37;;;;;;;32.17;21.95;;;18.50;99.90;;;;;;5101509;28;20046;-76
2023/06/29 01:51:03;;;;;;;32.50;22.67;;;18.50;99.90;;;;;;5084593;28;20035;-76
2023/06/29 01:53:29;;;;;;;34.47;22.75;;;18.50;99.90;;;;;;5101254;28;20156;-76
2023/06/29 01:55:55;;;;;;;33.55;23.10;;;18.50;99.90;;;;;;5084584;28;20305;-76
2023/06/29 01:58:20;;;;;;;31.55;23.70;;;18.50;99.90;;;;;;5084273;28;20277;-76
2023/06/29 02:00:46;;;;;;;34.85;22.55;;;18.60;99.90;;;;;;5051043;28;20020;-76
2023/06/29 02:03:12;;;;;;;32.83;22.48;;;18.50;99.90;;;;;;5101017;28;20186;-76
2023/06/29 02:05:37;;;;;;;31.80;22.52;;;18.50;99.90;;;;;;5101139;28;20035;-76
2023/06/29 02:08:04;;;;;;;33.30;22.23;;;18.60;99.90;;;;;;5101062;28;20061;-76
2023/06/29 02:10:29;;;;;;;36.03;23.30;;;18.60;99.90;;;;;;5103661;28;20039;-76
2023/06/29 02:12:55;;;;;;;34.53;23.02;;;18.60;99.90;;;;;;5087750;28;20020;-76
2023/06/29 02:15:21;;;;;;;29.38;21.45;;;18.60;99.90;;;;;;5104996;28;20024;-76
2023/06/29 02:17:47;;;;;;;34.75;21.95;;;18.60;99.90;;;;;;5070884;28;20012;-76
2023/06/29 02:20:12;;;;;;;33.90;23.38;;;18.60;99.90;;;;;;5087914;28;20105;-76
2023/06/29 02:22:38;;;;;;;32.35;23.05;;;18.60;99.90;;;;;;5104542;28;20031;-76
2023/06/29 02:25:04;;;;;;;35.92;23.83;;;18.60;99.90;;;;;;5087723;28;20103;-76
2023/06/29 02:27:30;;;;;;;33.53;22.50;;;18.60;99.90;;;;;;5104312;28;20092;-76
2023/06/29 02:29:55;;;;;;;32.47;22.25;;;18.60;99.90;;;;;;5087792;28;20174;-76
2023/06/29 02:32:22;;;;;;;34.05;23.65;;;18.60;99.90;;;;;;5104289;28;20024;-76
2023/06/29 02:34:47;;;;;;;32.40;22.90;;;18.60;99.90;;;;;;5088097;28;20092;-76
2023/06/29 02:37:13;;;;;;;33.20;21.02;;;18.60;99.90;;;;;;5104159;28;20028;-76
2023/06/29 02:39:39;;;;;;;31.48;21.63;;;18.60;99.90;;;;;;5104430;28;20262;-76
2023/06/29 02:42:04;;;;;;;30.88;22.15;;;18.60;99.90;;;;;;5104057;28;20083;-76
2023/06/29 02:44:30;;;;;;;35.13;22.02;;;18.60;99.90;;;;;;5087231;28;20270;-76
2023/06/29 02:46:56;;;;;;;30.33;21.33;;;18.60;99.90;;;;;;5104044;28;20020;-76
2023/06/29 02:49:21;;;;;;;32.90;23.55;;;18.60;99.90;;;;;;5087274;28;20024;-76
2023/06/29 02:51:47;;;;;;;30.80;21.92;;;18.50;99.90;;;;;;5103982;28;20229;-76
2023/06/29 02:54:13;;;;;;;30.50;21.20;;;18.50;99.90;;;;;;5053927;28;20034;-76
2023/06/29 02:56:38;;;;;;;30.77;21.13;;;18.50;99.90;;;;;;5087042;28;20233;-76
2023/06/29 02:59:04;;;;;;;32.55;21.67;;;18.50;99.90;;;;;;5103942;28;20024;-76
2023/06/29 03:01:30;;;;;;;32.67;21.30;;;18.50;99.90;;;;;;5086912;28;20208;-76
2023/06/29 03:03:55;;;;;;;31.10;22.17;;;18.50;99.90;;;;;;5103899;28;20228;-76
2023/06/29 03:06:21;;;;;;;32.20;21.65;;;18.50;99.90;;;;;;5103801;28;20027;-76
2023/06/29 03:08:48;;;;;;;30.77;22.10;;;18.50;99.90;;;;;;5103812;28;20020;-76
2023/06/29 03:11:14;;;;;;;34.25;22.77;;;18.50;99.90;;;;;;5103785;28;20169;-76
2023/06/29 03:13:39;;;;;;;39.85;24.15;;;18.50;99.90;;;;;;5070327;28;20016;-76
2023/06/29 03:16:05;;;;;;;29.75;21.90;;;18.50;99.90;;;;;;5086982;28;20028;-76
2023/06/29 03:18:31;;;;;;;29.27;21.20;;;18.50;99.90;;;;;;5103508;28;20028;-76
2023/06/29 03:20:57;;;;;;;33.70;22.02;;;18.50;99.90;;;;;;5102372;28;20170;-76
2023/06/29 03:23:22;;;;;;;35.40;23.88;;;18.50;99.90;;;;;;5103426;28;20059;-76
2023/06/29 03:25:48;;;;;;;32.42;22.70;;;18.50;99.90;;;;;;5086549;28;20043;-76
2023/06/29 03:28:14;;;;;;;35.70;23.30;;;18.50;99.90;;;;;;5103181;28;20020;-76
2023/06/29 03:30:40;;;;;;;32.95;22.02;;;18.60;99.90;;;;;;5103394;28;20092;-76
2023/06/29 03:33:05;;;;;;;32.20;21.42;;;18.60;99.90;;;;;;5086318;28;20044;-76
2023/06/29 03:35:31;;;;;;;32.60;22.15;;;18.50;99.90;;;;;;5086436;28;20177;-76
2023/06/29 03:37:57;;;;;;;30.05;21.10;;;18.60;99.90;;;;;;5103347;28;20053;-76
2023/06/29 03:40:22;;;;;;;31.65;21.30;;;18.60;99.90;;;;;;5103146;28;20043;-76
2023/06/29 03:42:49;;;;;;;31.40;21.77;;;18.60;99.90;;;;;;5086257;28;20051;-76
2023/06/29 03:45:15;;;;;;;31.67;20.98;;;18.60;99.90;;;;;;5103031;28;20277;-76
2023/06/29 03:47:41;;;;;;;29.13;21.48;;;18.60;99.90;;;;;;5085866;28;20024;-76
2023/06/29 03:50:06;;;;;;;33.20;22.13;;;18.60;99.90;;;;;;5103015;28;20083;-76
2023/06/29 03:52:32;;;;;;;28.55;21.05;;;18.60;99.90;;;;;;5102983;28;20293;-75
2023/06/29 03:54:58;;;;;;;33.08;22.33;;;18.60;99.90;;;;;;5086126;28;20035;-76
2023/06/29 03:57:23;;;;;;;33.58;21.83;;;18.60;99.90;;;;;;5103028;28;20087;-76
2023/06/29 03:59:49;;;;;;;28.35;20.73;;;18.70;99.90;;;;;;5085983;28;20028;-76
2023/06/29 04:02:15;;;;;;;32.60;20.95;;;18.70;99.90;;;;;;5085766;28;20203;-76
2023/06/29 04:04:40;;;;;;;33.08;21.05;;;18.70;99.90;;;;;;5102875;28;20104;-76
2023/06/29 04:07:06;;;;;;;29.80;20.77;;;18.70;99.90;;;;;;5085452;28;20042;-76
2023/06/29 04:09:32;;;;;;;31.67;20.67;;;18.70;99.90;;;;;;5102634;28;20034;-76
2023/06/29 04:11:57;;;;;;;29.75;20.15;;;18.70;99.90;;;;;;5102279;28;20032;-76
2023/06/29 04:14:23;;;;;;;28.60;20.80;;;18.70;99.90;;;;;;5085662;28;20020;-76
2023/06/29 04:16:49;;;;;;;27.45;19.25;;;18.70;99.90;;;;;;5085422;28;20146;-76
2023/06/29 04:19:14;;;;;;;30.05;19.25;;;18.70;99.90;;;;;;5085365;28;20178;-76
2023/06/29 04:21:40;;;;;;;28.63;19.80;;;18.80;99.90;;;;;;5102025;28;20036;-76
2023/06/29 04:24:06;;;;;;;27.60;19.65;;;18.80;99.90;;;;;;5085474;28;20261;-76
2023/06/29 04:26:32;;;;;;;29.08;20.52;;;18.80;99.90;;;;;;5085002;28;20067;-76
2023/06/29 04:29:05;;;;;;;29.67;19.98;;;18.70;99.90;;;;;;5102302;28;20281;-76
2023/06/29 04:31:31;;;;;;;26.52;18.73;;;18.80;99.90;;;;;;5085099;28;20341;-76
2023/06/29 04:34:02;;;;;;;28.83;18.40;;;18.80;99.90;;;;;;5102153;28;20200;-76
2023/06/29 04:36:29;;;;;;;28.30;19.63;;;18.80;99.90;;;;;;5069127;28;20093;-76
2023/06/29 04:38:54;;;;;;;26.60;18.42;;;18.80;99.90;;;;;;5102295;28;20134;-76
2023/06/29 04:41:30;;;;;;;29.95;18.83;;;18.90;99.90;;;;;;5085133;28;20219;-76
2023/06/29 04:43:59;;;;;;;29.08;19.23;;;18.90;99.90;;;;;;5088909;28;20032;-76
2023/06/29 04:46:28;;;;;;;28.77;19.60;;;18.90;99.90;;;;;;5101796;28;20012;-76
2023/06/29 04:48:54;;;;;;;28.92;19.33;;;19.00;99.90;;;;;;5101994;28;20020;-76
2023/06/29 04:51:19;;;;;;;29.05;19.50;;;19.00;99.90;;;;;;5084888;28;20023;-76
2023/06/29 04:53:45;;;;;;;30.90;21.02;;;19.00;99.90;;;;;;5085074;28;20024;-76
2023/06/29 04:56:11;;;;;;;27.25;19.38;;;19.80;99.90;;;;;;5085003;28;20035;-76
2023/06/29 04:58:36;;;;;;;28.17;20.05;;;19.10;99.90;;;;;;5084873;28;20054;-76
2023/06/29 05:01:03;;;;;;;28.00;19.05;;;19.20;99.90;;;;;;5084937;28;20016;-76
2023/06/29 05:03:29;;;;;;;29.33;20.38;;;19.10;99.90;;;;;;5101535;28;20032;-76
2023/06/29 05:05:55;;;;;;;29.75;19.23;;;19.30;99.90;;;;;;5085145;28;20322;-76
2023/06/29 05:08:21;;;;;;;28.63;18.60;;;19.30;99.90;;;;;;5101543;28;20036;-76
2023/06/29 05:10:46;;;;;;;27.05;19.50;;;19.40;99.90;;;;;;5085089;28;20016;-76
2023/06/29 05:13:12;;;;;;;27.60;17.98;;;19.40;99.90;;;;;;5084697;28;20047;-76
2023/06/29 05:15:38;;;;;;;29.58;18.88;;;19.50;99.90;;;;;;5101828;28;20125;-76
2023/06/29 05:18:04;;;;;;;29.92;18.70;;;19.20;99.90;;;;;;5080803;28;20028;-76
2023/06/29 05:20:29;;;;;;;28.75;17.85;;;19.50;99.90;;;;;;5084845;28;20031;-76
2023/06/29 05:22:55;;;;;;;24.40;17.88;;;19.50;99.90;;;;;;5085020;28;20016;-76
2023/06/29 05:25:21;;;;;;;24.83;16.67;;;19.50;99.90;;;;;;5101476;28;20309;-76
2023/06/29 05:27:46;;;;;;;27.27;19.17;;;19.50;99.90;;;;;;5101589;28;20064;-76
2023/06/29 05:30:13;;;;;;;26.15;17.73;;;19.50;99.90;;;;;;5084838;28;20020;-76
2023/06/29 05:32:38;;;;;;;24.02;17.65;;;19.60;99.90;;;;;;5084483;28;20056;-76
2023/06/29 05:35:04;;;;;;;25.55;18.42;;;19.60;99.90;;;;;;5101437;28;20024;-76
2023/06/29 05:37:31;;;;;;;26.05;17.70;;;19.60;99.90;;;;;;5101353;28;20063;-76
2023/06/29 05:39:57;;;;;;;24.83;17.60;;;19.60;99.90;;;;;;5101575;28;20024;-76
2023/06/29 05:42:26;;;;;;;25.55;17.58;;;19.60;99.90;;;;;;5101292;28;20088;-76
2023/06/29 05:44:53;;;;;;;28.58;17.90;;;19.60;99.90;;;;;;5086328;28;20092;-76
2023/06/29 05:47:19;;;;;;;26.67;17.40;;;19.60;99.90;;;;;;5105276;28;20035;-76
2023/06/29 05:49:45;;;;;;;26.55;19.02;;;19.70;99.90;;;;;;5105472;28;20012;-76
2023/06/29 05:52:10;;;;;;;26.15;17.23;;;19.70;99.90;;;;;;5105201;28;20311;-76
2023/06/29 05:54:37;;;;;;;26.98;17.88;;;19.70;99.90;;;;;;5105289;28;20020;-76
2023/06/29 05:57:04;;;;;;;26.73;16.80;;;19.80;99.90;;;;;;5088183;28;20137;-76
2023/06/29 05:59:29;;;;;;;25.08;17.23;;;19.80;99.90;;;;;;5088192;28;20227;-76
2023/06/29 06:01:56;;;;;;;28.77;17.65;;;19.90;99.90;;;;;;5105015;28;20059;-76
2023/06/29 06:04:22;;;;;;;24.10;16.20;;;19.90;99.90;;;;;;5088289;28;20072;-76
2023/06/29 06:06:48;;;;;;;26.27;17.60;;;20.00;99.90;;;;;;5104872;28;20085;-76
2023/06/29 06:09:13;;;;;;;25.88;16.77;;;20.10;99.90;;;;;;5105226;28;20020;-76
2023/06/29 06:11:39;;;;;;;25.13;17.50;;;20.10;99.90;;;;;;5087696;28;20185;-76
2023/06/29 06:14:05;;;;;;;27.23;16.98;;;20.30;99.90;;;;;;5104971;28;20028;-75
2023/06/29 06:16:30;;;;;;;26.20;17.05;;;20.30;99.90;;;;;;5087700;28;20051;-76
2023/06/29 06:18:56;;;;;;;28.13;17.13;;;20.30;99.90;;;;;;5087845;28;20024;-76
2023/06/29 06:21:23;;;;;;;24.95;16.83;;;20.40;99.90;;;;;;5104544;28;20032;-75
2023/06/29 06:23:50;;;;;;;25.05;16.63;;;20.50;99.90;;;;;;5104745;28;20051;-76
2023/06/29 06:26:16;;;;;;;23.15;16.33;;;20.50;99.90;;;;;;5087428;28;20113;-76
2023/06/29 06:28:42;;;;;;;22.50;15.93;;;20.60;99.90;;;;;;5087766;28;20020;-76
2023/06/29 06:31:08;;;;;;;22.38;15.75;;;20.70;99.90;;;;;;5088085;28;20061;-76
2023/06/29 06:33:33;;;;;;;22.95;16.42;;;20.80;99.90;;;;;;5087937;28;20071;-76
2023/06/29 06:36:00;;;;;;;22.75;15.73;;;20.70;99.90;;;;;;5087762;28;20311;-76
2023/06/29 06:38:26;;;;;;;23.48;16.42;;;20.80;99.90;;;;;;5104315;28;20040;-75
2023/06/29 06:40:51;;;;;;;23.60;16.67;;;20.80;99.90;;;;;;5087786;28;20024;-76
2023/06/29 06:43:17;;;;;;;24.75;16.90;;;20.80;99.90;;;;;;5087246;28;20060;-75
2023/06/29 06:45:44;;;;;;;23.33;16.67;;;20.80;99.90;;;;;;5087428;28;20083;-76
2023/06/29 06:48:10;;;;;;;22.60;14.55;;;20.80;99.90;;;;;;5087164;28;20016;-76
2023/06/29 06:50:35;;;;;;;25.35;16.30;;;20.80;99.90;;;;;;5087382;28;20155;-76
2023/06/29 06:53:01;;;;;;;27.30;15.48;;;20.80;99.90;;;;;;5103881;28;20047;-76
2023/06/29 06:55:27;;;;;;;21.95;15.00;;;20.80;99.90;;;;;;5103916;28;20043;-76
2023/06/29 06:57:53;;;;;;;24.85;15.82;;;20.80;99.90;;;;;;5103959;28;20083;-76
2023/06/29 07:00:19;;;;;;;28.65;16.80;;;20.90;99.90;;;;;;5087082;28;20027;-76
2023/06/29 07:02:45;;;;;;;22.13;15.20;;;20.90;99.90;;;;;;5086904;28;20038;-75
2023/06/29 07:05:11;;;;;;;23.48;16.35;;;20.90;99.90;;;;;;5070463;28;20187;-76
2023/06/29 07:07:37;;;;;;;26.30;15.82;;;20.90;99.90;;;;;;5103756;28;20020;-75
2023/06/29 07:10:03;;;;;;;23.83;15.85;;;21.00;99.90;;;;;;5086973;28;20023;-75
2023/06/29 07:12:29;;;;;;;26.02;16.05;;;20.90;99.90;;;;;;5103858;28;20031;-76
2023/06/29 07:14:55;;;;;;;24.67;16.67;;;21.00;99.90;;;;;;5103697;28;20055;-75
2023/06/29 07:17:21;;;;;;;22.90;15.48;;;21.00;99.90;;;;;;5086619;28;20036;-75
2023/06/29 07:19:46;;;;;;;23.00;15.90;;;21.00;99.90;;;;;;5103376;28;20056;-75
2023/06/29 07:22:12;;;;;;;22.95;15.10;;;21.00;99.90;;;;;;5103365;28;20023;-76
2023/06/29 07:24:38;;;;;;;24.00;15.57;;;21.00;99.90;;;;;;5103481;28;20228;-76
2023/06/29 07:27:03;;;;;;;24.25;15.05;;;21.00;99.90;;;;;;5103346;28;20031;-75
2023/06/29 07:29:30;;;;;;;23.65;14.88;;;21.00;99.90;;;;;;5103339;28;20173;-76
2023/06/29 07:31:56;;;;;;;22.73;15.90;;;21.00;99.90;;;;;;5103788;28;20016;-75
2023/06/29 07:34:24;;;;;;;23.27;14.93;;;21.00;99.90;;;;;;5086429;28;20250;-75
2023/06/29 07:36:50;;;;;;;24.13;16.10;;;20.90;99.90;;;;;;5086255;28;20016;-75
2023/06/29 07:39:16;;;;;;;25.83;16.75;;;20.90;99.90;;;;;;5103260;28;20039;-75
2023/06/29 07:41:42;;;;;;;24.02;15.50;;;20.90;99.90;;;;;;5103018;28;20024;-76
2023/06/29 07:44:08;;;;;;;25.20;15.30;;;20.90;99.90;;;;;;5086108;28;20027;-75
2023/06/29 07:46:34;;;;;;;23.30;15.45;;;20.90;99.90;;;;;;5102927;28;20068;-75
2023/06/29 07:49:00;;;;;;;23.95;15.48;;;20.80;99.90;;;;;;5102997;28;20085;-75
2023/06/29 07:51:32;;;;;;;25.35;16.23;;;20.90;99.90;;;;;;5085926;28;20012;-75
2023/06/29 07:54:00;;;;;;;23.80;15.90;;;20.80;99.90;;;;;;5086465;28;20046;-76
2023/06/29 07:56:26;;;;;;;24.63;17.33;;;20.90;99.90;;;;;;5085735;28;20031;-75
2023/06/29 07:58:52;;;;;;;27.20;16.02;;;20.90;99.90;;;;;;5102901;28;20028;-75
2023/06/29 08:01:18;;;;;;;25.83;15.70;;;20.90;99.90;;;;;;5102637;28;20074;-76
2023/06/29 08:03:45;;;;;;;25.83;16.25;;;20.80;99.90;;;;;;5102811;28;20111;-76
2023/06/29 08:06:10;;;;;;;23.50;15.88;;;20.80;99.90;;;;;;5086054;28;20024;-76
2023/06/29 08:08:36;;;;;;;23.48;16.13;;;20.80;99.90;;;;;;5085239;28;20028;-76
2023/06/29 08:11:02;;;;;;;27.08;17.30;;;20.80;99.90;;;;;;5068999;28;20039;-76
2023/06/29 08:13:28;;;;;;;26.92;16.90;;;20.80;99.90;;;;;;5102449;28;20087;-76
2023/06/29 08:15:54;;;;;;;23.75;16.20;;;20.70;99.90;;;;;;5085778;28;20095;-76
2023/06/29 08:18:19;;;;;;;24.98;17.33;;;20.70;99.90;;;;;;5085559;28;20121;-76
2023/06/29 08:20:48;;;;;;;26.08;17.42;;;20.80;99.90;;;;;;5085643;28;20065;-76
2023/06/29 08:23:14;;;;;;;27.13;18.45;;;20.80;99.90;;;;;;5085353;28;20281;-77
2023/06/29 08:25:40;;;;;;;26.27;17.45;;;20.90;99.90;;;;;;5102314;28;20320;-77
2023/06/29 08:28:06;;;;;;;26.58;17.52;;;20.90;99.90;;;;;;5102210;28;20024;-77
2023/06/29 08:30:33;;;;;;;26.00;17.38;;;21.00;99.90;;;;;;5085546;28;20020;-77
2023/06/29 08:32:59;;;;;;;26.77;16.60;;;21.10;99.90;;;;;;5102175;28;20028;-76
2023/06/29 08:35:25;;;;;;;26.35;17.90;;;21.20;99.90;;;;;;5102330;28;20031;-76
2023/06/29 08:37:50;;;;;;;26.52;18.08;;;21.20;99.90;;;;;;5085459;28;20016;-76
2023/06/29 08:40:22;;;;;;;24.60;17.02;;;21.30;99.90;;;;;;5085287;28;20226;-76
2023/06/29 08:42:49;;;;;;;25.17;17.07;;;21.40;99.90;;;;;;5085509;28;20035;-76
2023/06/29 08:45:15;;;;;;;24.80;16.65;;;21.40;99.90;;;;;;5101996;28;20035;-76
2023/06/29 08:47:42;;;;;;;28.80;17.77;;;21.40;99.90;;;;;;5085078;28;20133;-76
2023/06/29 08:50:09;;;;;;;26.40;16.67;;;21.50;99.90;;;;;;5102120;28;20084;-76
2023/06/29 08:52:36;;;;;;;23.23;16.35;;;21.70;99.90;;;;;;5101838;28;20024;-76
2023/06/29 08:55:02;;;;;;;24.60;16.75;;;21.80;99.90;;;;;;5102039;28;20047;-76
2023/06/29 08:57:32;;;;;;;24.77;16.85;;;21.90;99.90;;;;;;5101898;28;20055;-76
2023/06/29 09:00:02;;;;;;;25.00;16.15;;;21.90;99.90;;;;;;5102261;28;20278;-76
2023/06/29 09:02:28;;;;;;;25.83;16.35;;;22.10;99.90;;;;;;5085159;28;20304;-76
2023/06/29 09:04:55;;;;;;;24.48;16.65;;;22.20;99.90;;;;;;5084921;28;20028;-75
2023/06/29 09:07:21;;;;;;;29.20;16.75;;;22.20;99.90;;;;;;5084536;28;20016;-75
2023/06/29 09:09:46;;;;;;;25.50;16.15;;;22.30;99.90;;;;;;5084991;28;20257;-76
2023/06/29 09:12:12;;;;;;;23.77;15.20;;;22.40;99.90;;;;;;5101500;28;20020;-76
2023/06/29 09:14:44;;;;;;;23.90;15.50;;;22.40;99.90;;;;;;5084988;28;20169;-76
2023/06/29 09:17:15;;;;;;;26.05;16.00;;;22.30;99.90;;;;;;5085088;28;20020;-76
2023/06/29 09:19:49;;;;;;;23.50;16.08;;;22.30;99.90;;;;;;5088365;28;20024;-76
2023/06/29 09:22:15;;;;;;;27.40;16.95;;;22.20;99.90;;;;;;5105749;28;20032;-75
2023/06/29 09:24:41;;;;;;;24.35;16.83;;;22.20;99.90;;;;;;5105579;28;20036;-76
2023/06/29 09:27:10;;;;;;;24.73;17.00;;;22.20;99.90;;;;;;5088815;28;20038;-76
2023/06/29 09:29:39;;;;;;;25.23;17.48;;;22.30;99.90;;;;;;5106001;28;20036;-76
2023/06/29 09:32:13;;;;;;;26.85;17.25;;;22.30;99.90;;;;;;5105621;28;20034;-76
2023/06/29 09:34:47;;;;;;;25.67;16.95;;;22.30;99.90;;;;;;5105787;28;20028;-75
2023/06/29 09:37:15;;;;;;;25.75;17.15;;;22.30;99.90;;;;;;5088621;28;20095;-76
2023/06/29 09:39:59;;;;;;;28.58;18.98;;;22.30;99.90;;;;;;5105763;28;20032;-75
2023/06/29 09:42:28;;;;;;;25.90;17.77;;;23.10;99.90;;;;;;5088537;28;20023;-75
2023/06/29 09:44:54;;;;;;;28.65;18.65;;;22.50;99.90;;;;;;5105429;28;20306;-76
2023/06/29 09:47:21;;;;;;;27.55;18.70;;;22.60;99.90;;;;;;5105222;28;20036;-75
2023/06/29 09:49:48;;;;;;;28.60;20.10;;;22.60;99.90;;;;;;5088654;28;20020;-76
2023/06/29 09:52:15;;;;;;;26.58;18.65;;;22.70;99.90;;;;;;5088480;28;20079;-76
2023/06/29 09:54:41;;;;;;;28.60;20.08;;;22.70;99.90;;;;;;5088469;28;20028;-75
2023/06/29 09:57:10;;;;;;;26.35;18.00;;;22.70;99.90;;;;;;5105008;28;20035;-75
2023/06/29 09:59:40;;;;;;;25.65;17.95;;;22.60;99.90;;;;;;5088227;28;20020;-75
2023/06/29 10:02:10;;;;;;;26.88;18.63;;;22.60;99.90;;;;;;5105032;28;20098;-75
2023/06/29 10:04:36;;;;;;;26.30;17.67;;;22.60;99.90;;;;;;5088251;28;20024;-76
2023/06/29 10:07:09;;;;;;;28.58;19.08;;;22.60;99.90;;;;;;5104880;28;20016;-76
2023/06/29 10:09:45;;;;;;;25.85;18.65;;;22.60;99.90;;;;;;5088345;28;20081;-75
2023/06/29 10:12:11;;;;;;;26.20;18.77;;;22.50;99.90;;;;;;5104818;28;20016;-75
2023/06/29 10:14:41;;;;;;;26.08;18.48;;;22.50;99.90;;;;;;5088354;28;20024;-76
2023/06/29 10:17:11;;;;;;;26.65;18.48;;;22.40;99.90;;;;;;5087564;28;20233;-75
2023/06/29 10:19:40;;;;;;;25.20;18.65;;;22.40;99.90;;;;;;5087799;28;20341;-76
2023/06/29 10:22:08;;;;;;;25.38;18.48;;;22.40;99.90;;;;;;5087798;28;20048;-76
2023/06/29 10:24:39;;;;;;;28.00;18.73;;;22.30;99.90;;;;;;5104844;28;20036;-76
2023/06/29 10:27:08;;;;;;;26.73;18.35;;;22.30;99.90;;;;;;5087707;28;20185;-76
2023/06/29 10:29:44;;;;;;;27.08;18.52;;;22.30;99.90;;;;;;5104348;28;20020;-76
2023/06/29 10:32:27;;;;;;;27.27;18.98;;;22.20;99.90;;;;;;5104355;28;20092;-75
2023/06/29 10:35:22;;;;;;;28.38;20.30;;;22.10;99.90;;;;;;5104474;28;20269;-75
2023/06/29 10:37:50;;;;;;;26.42;19.75;;;22.00;99.90;;;;;;5103157;28;20280;-75
2023/06/29 10:40:21;;;;;;;24.02;18.67;;;22.00;99.90;;;;;;5087568;28;20083;-75
2023/06/29 10:42:48;;;;;;;26.55;19.20;;;21.90;99.90;;;;;;5087369;28;20199;-76
2023/06/29 10:45:20;;;;;;;25.70;19.90;;;22.00;99.90;;;;;;5104174;28;20035;-76
2023/06/29 10:47:58;;;;;;;26.60;17.55;;;21.90;99.90;;;;;;5104029;28;20273;-75
2023/06/29 10:50:28;;;;;;;24.55;16.33;;;21.90;99.90;;;;;;5104133;28;20047;-75
2023/06/29 10:53:01;;;;;;;24.75;17.20;;;21.80;99.90;;;;;;5087247;28;20035;-76
2023/06/29 10:55:37;;;;;;;27.27;18.40;;;21.80;99.90;;;;;;5087203;28;20065;-76
2023/06/29 10:58:17;;;;;;;24.10;16.98;;;21.80;99.90;;;;;;5104024;28;20058;-76
2023/06/29 11:00:43;;;;;;;23.70;17.10;;;21.80;99.90;;;;;;5087165;28;20024;-76
2023/06/29 11:03:10;;;;;;;25.90;18.77;;;21.80;99.90;;;;;;5103877;28;20020;-76
2023/06/29 11:05:37;;;;;;;24.65;18.42;;;21.70;99.90;;;;;;5103863;28;20024;-76
2023/06/29 11:08:05;;;;;;;27.67;19.23;;;21.80;99.90;;;;;;5086767;28;20020;-75
2023/06/29 11:10:31;;;;;;;25.83;19.33;;;21.70;99.90;;;;;;5103923;28;20100;-76
2023/06/29 11:12:57;;;;;;;27.13;19.88;;;21.80;99.90;;;;;;5086871;28;20262;-75
2023/06/29 11:15:23;;;;;;;28.40;20.48;;;21.70;99.90;;;;;;5086990;28;20185;-75
2023/06/29 11:17:51;;;;;;;27.50;19.75;;;21.80;99.90;;;;;;5084029;28;20028;-75
2023/06/29 11:20:18;;;;;;;26.42;19.15;;;21.80;99.90;;;;;;5099359;28;20069;-76
2023/06/29 11:22:45;;;;;;;29.20;21.10;;;21.80;99.90;;;;;;5086696;28;20230;-76
2023/06/29 11:25:16;;;;;;;25.52;19.10;;;21.90;99.90;;;;;;5086569;28;20097;-76
2023/06/29 11:27:42;;;;;;;28.38;19.95;;;22.00;99.90;;;;;;5066698;28;20039;-76
2023/06/29 11:30:10;;;;;;;27.38;20.65;;;22.10;99.90;;;;;;5086580;28;20039;-76
2023/06/29 11:32:36;;;;;;;30.42;21.33;;;22.20;99.90;;;;;;5103400;28;20024;-76
2023/06/29 11:35:04;;;;;;;26.50;20.08;;;22.20;99.90;;;;;;5103535;28;20070;-75
2023/06/29 11:37:30;;;;;;;26.40;19.80;;;22.10;99.90;;;;;;5086446;28;20353;-75
2023/06/29 11:39:56;;;;;;;28.83;19.92;;;22.20;99.90;;;;;;5070001;28;20016;-75
2023/06/29 11:42:24;;;;;;;27.70;20.05;;;22.20;99.90;;;;;;5084980;28;20292;-75
2023/06/29 11:44:59;;;;;;;26.52;18.85;;;22.30;99.90;;;;;;5103148;28;20060;-75
2023/06/29 11:47:25;;;;;;;28.50;21.20;;;22.30;99.90;;;;;;5102845;28;20024;-75
2023/06/29 11:49:51;;;;;;;29.17;21.02;;;22.40;99.90;;;;;;5086194;28;20020;-76
2023/06/29 11:52:17;;;;;;;29.65;20.35;;;22.40;99.90;;;;;;5085843;28;20087;-75
2023/06/29 11:54:43;;;;;;;27.15;20.60;;;22.40;99.90;;;;;;5103117;28;20027;-75
2023/06/29 11:57:08;;;;;;;27.08;20.67;;;22.40;99.90;;;;;;5085813;28;20035;-75
2023/06/29 11:59:38;;;;;;;29.83;20.40;;;22.40;99.90;;;;;;5102872;28;20028;-76
2023/06/29 12:02:04;;;;;;;26.05;18.73;;;22.50;99.90;;;;;;5102630;28;20034;-76
2023/06/29 12:04:30;;;;;;;25.38;18.77;;;22.60;99.90;;;;;;5086171;28;20028;-75
2023/06/29 12:06:56;;;;;;;26.23;18.75;;;22.70;99.90;;;;;;5102502;28;20073;-76
2023/06/29 12:09:32;;;;;;;26.00;18.63;;;22.80;99.90;;;;;;5086002;28;20079;-75
2023/06/29 12:11:59;;;;;;;25.92;19.73;;;22.80;99.90;;;;;;5085665;28;20028;-76
2023/06/29 12:14:29;;;;;;;24.23;17.88;;;23.00;99.90;;;;;;5069359;28;20035;-75
2023/06/29 12:16:57;;;;;;;25.55;18.42;;;22.90;99.90;;;;;;5102414;28;20300;-75
2023/06/29 12:19:27;;;;;;;26.42;20.20;;;23.00;99.90;;;;;;5097705;28;20081;-76
2023/06/29 12:21:53;;;;;;;28.42;18.95;;;22.90;99.90;;;;;;5101109;28;20028;-75
2023/06/29 12:24:19;;;;;;;30.17;19.65;;;22.80;99.90;;;;;;5102277;28;20039;-75
2023/06/29 12:26:44;;;;;;;29.27;20.42;;;22.70;99.90;;;;;;5085209;28;20085;-76